createdAt,value
2019-03-23T00:00:05.555Z,76.70
2019-03-23T00:02:33.945Z,77.40
2019-03-23T00:05:02.337Z,78.20
2019-03-23T00:07:30.721Z,78.90
2019-03-23T00:09:59.095Z,82.50
2019-03-23T00:12:27.475Z,80.00
2019-03-23T00:14:55.863Z,78.50
2019-03-23T00:17:24.243Z,76.80
2019-03-23T00:19:52.640Z,78.30
2019-03-23T00:22:21.021Z,77.70
2019-03-23T00:24:49.395Z,80.20
2019-03-23T00:27:17.787Z,79.20
2019-03-23T00:29:46.168Z,77.90
2019-03-23T00:32:14.565Z,80.20
2019-03-23T00:34:42.943Z,78.80
2019-03-23T00:37:11.343Z,76.10
2019-03-23T00:39:39.728Z,80.10
2019-03-23T00:42:08.124Z,83.70
2019-03-23T00:44:36.499Z,80.80
2019-03-23T00:47:04.888Z,80.60
2019-03-23T00:49:33.272Z,83.30
2019-03-23T00:52:01.665Z,84.20
2019-03-23T00:54:30.046Z,79.30
2019-03-23T00:56:58.751Z,79.40
2019-03-23T00:59:27.135Z,78.80
2019-03-23T01:01:55.528Z,82.60
2019-03-23T01:04:24.202Z,81.40
2019-03-23T01:06:52.670Z,81.80
2019-03-23T01:09:21.051Z,85.00
2019-03-23T01:11:49.455Z,82.70
2019-03-23T01:14:17.861Z,85.00
2019-03-23T01:16:46.223Z,83.10
2019-03-23T01:19:14.600Z,83.20
2019-03-23T01:21:42.988Z,82.60
2019-03-23T01:24:11.371Z,81.10
2019-03-23T01:26:39.765Z,81.30
2019-03-23T01:29:08.144Z,78.60
2019-03-23T01:31:36.540Z,82.00
2019-03-23T01:34:04.920Z,83.90
2019-03-23T01:36:33.312Z,84.60
2019-03-23T01:39:01.702Z,85.30
2019-03-23T01:41:30.099Z,84.20
2019-03-23T01:43:58.488Z,83.90
2019-03-23T01:46:26.880Z,84.90
2019-03-23T01:48:55.257Z,83.00
2019-03-23T01:51:23.646Z,83.70
2019-03-23T01:53:52.027Z,81.90
2019-03-23T01:56:20.415Z,83.10
2019-03-23T01:58:48.800Z,82.70
2019-03-23T02:01:17.193Z,81.70
2019-03-23T02:03:45.578Z,84.40
2019-03-23T02:06:14.223Z,86.20
2019-03-23T02:08:42.616Z,83.30
2019-03-23T02:11:11.008Z,81.50
2019-03-23T02:13:39.389Z,81.50
2019-03-23T02:16:07.788Z,86.00
2019-03-23T02:18:36.164Z,80.10
2019-03-23T02:21:04.556Z,82.60
2019-03-23T02:23:33.204Z,84.10
2019-03-23T02:26:01.579Z,84.60
2019-03-23T02:28:30.255Z,83.30
2019-03-23T02:30:58.665Z,86.40
2019-03-23T02:33:27.163Z,83.00
2019-03-23T02:35:55.620Z,89.00
2019-03-23T02:38:23.995Z,89.60
2019-03-23T02:40:52.376Z,88.40
2019-03-23T02:43:20.770Z,90.10
2019-03-23T02:45:49.153Z,91.10
2019-03-23T02:48:17.537Z,90.80
2019-03-23T02:50:45.924Z,91.00
2019-03-23T02:53:14.326Z,91.40
2019-03-23T02:55:42.699Z,91.40
2019-03-23T02:58:11.088Z,91.30
2019-03-23T03:00:39.472Z,91.70
2019-03-23T03:03:07.872Z,89.40
2019-03-23T03:05:36.253Z,90.20
2019-03-23T03:08:04.649Z,90.40
2019-03-23T03:10:40.523Z,86.90
2019-03-23T03:13:08.969Z,86.80
2019-03-23T03:15:37.365Z,84.50
2019-03-23T03:18:07.193Z,85.50
2019-03-23T03:20:35.572Z,86.50
2019-03-23T03:23:04.036Z,86.40
2019-03-23T03:25:32.412Z,89.50
2019-03-23T03:28:00.811Z,90.10
2019-03-23T03:30:29.238Z,90.80
2019-03-23T03:32:57.680Z,91.50
2019-03-23T03:35:26.362Z,91.80
2019-03-23T03:37:56.869Z,90.50
2019-03-23T03:40:24.847Z,88.50
2019-03-23T03:42:53.525Z,88.30
2019-03-23T03:45:27.191Z,91.80
2019-03-23T03:47:55.642Z,90.90
2019-03-23T03:50:24.029Z,90.90
2019-03-23T03:52:52.432Z,90.40
2019-03-23T03:55:20.807Z,91.50
2019-03-23T03:57:49.214Z,91.20
2019-03-23T04:00:17.663Z,90.20
2019-03-23T04:02:46.056Z,90.60
2019-03-23T04:05:14.709Z,90.50
2019-03-23T04:07:43.115Z,90.40
2019-03-23T04:10:11.634Z,91.70
2019-03-23T04:12:40.048Z,90.30
2019-03-23T04:15:09.868Z,91.40
2019-03-23T04:17:38.273Z,91.20
2019-03-23T04:20:08.204Z,88.50
2019-03-23T04:22:36.609Z,88.50
2019-03-23T04:25:07.215Z,89.50
2019-03-23T04:27:34.820Z,90.70
2019-03-23T04:30:04.347Z,90.30
2019-03-23T04:32:32.743Z,90.00
2019-03-23T04:35:01.124Z,90.20
2019-03-23T04:37:29.513Z,88.50
2019-03-23T04:39:57.892Z,89.80
2019-03-23T04:42:26.280Z,88.10
2019-03-23T04:44:54.664Z,90.40
2019-03-23T04:47:23.056Z,87.90
2019-03-23T04:49:51.438Z,87.00
2019-03-23T04:52:20.069Z,85.20
2019-03-23T04:54:48.451Z,83.50
2019-03-23T04:57:16.839Z,83.30
2019-03-23T04:59:45.227Z,85.20
2019-03-23T05:02:13.689Z,83.10
2019-03-23T05:04:42.072Z,82.70
2019-03-23T05:07:10.462Z,83.80
2019-03-23T05:09:38.849Z,84.60
2019-03-23T05:12:07.520Z,89.70
2019-03-23T05:14:35.901Z,90.10
2019-03-23T05:17:04.291Z,90.40
2019-03-23T05:19:32.973Z,90.00
2019-03-23T05:22:01.360Z,88.50
2019-03-23T05:24:30.039Z,86.40
2019-03-23T05:26:58.435Z,90.30
2019-03-23T05:29:26.807Z,90.60
2019-03-23T05:31:55.196Z,91.00
2019-03-23T05:34:23.580Z,90.40
2019-03-23T05:36:52.245Z,90.70
2019-03-23T05:39:20.638Z,90.50
2019-03-23T05:41:49.029Z,87.50
2019-03-23T05:44:17.399Z,91.00
2019-03-23T05:46:46.081Z,90.00
2019-03-23T05:49:14.468Z,88.40
2019-03-23T05:51:42.856Z,91.40
2019-03-23T05:54:11.248Z,88.50
2019-03-23T05:56:39.639Z,89.20
2019-03-23T05:59:08.029Z,90.40
2019-03-23T06:01:36.424Z,85.00
2019-03-23T06:04:04.870Z,85.00
2019-03-23T06:06:33.254Z,89.10
2019-03-23T06:09:03.135Z,88.20
2019-03-23T06:11:31.513Z,84.20
2019-03-23T06:13:59.908Z,84.80
2019-03-23T06:16:28.284Z,91.40
2019-03-23T06:18:56.683Z,91.90
2019-03-23T06:21:25.098Z,91.50
2019-03-23T06:23:53.529Z,90.90
2019-03-23T06:26:22.211Z,90.00
2019-03-23T06:28:50.613Z,88.90
2019-03-23T06:31:19.285Z,89.30
2019-03-23T06:33:47.668Z,87.10
2019-03-23T06:36:16.053Z,87.80
2019-03-23T06:38:44.450Z,86.20
2019-03-23T06:41:12.820Z,83.60
2019-03-23T06:43:41.222Z,83.00
2019-03-23T06:46:09.596Z,82.50
2019-03-23T06:48:37.984Z,82.50
2019-03-23T06:51:06.624Z,82.20
2019-03-23T06:53:35.311Z,81.80
2019-03-23T06:56:03.859Z,82.00
2019-03-23T06:58:32.255Z,81.60
2019-03-23T07:01:00.635Z,80.70
2019-03-23T07:03:29.344Z,80.10
2019-03-23T07:05:57.736Z,78.80
2019-03-23T07:08:31.828Z,78.50
2019-03-23T07:10:56.243Z,77.90
2019-03-23T07:13:24.649Z,76.20
2019-03-23T07:15:53.297Z,75.80
2019-03-23T07:18:21.685Z,75.40
2019-03-23T07:20:50.071Z,75.50
2019-03-23T07:23:18.469Z,75.30
2019-03-23T07:25:46.854Z,75.30
2019-03-23T07:28:15.255Z,75.30
2019-03-23T07:30:43.644Z,74.20
2019-03-23T07:33:12.049Z,73.90
2019-03-23T07:35:40.437Z,73.10
2019-03-23T07:38:09.000Z,73.40
2019-03-23T07:40:37.380Z,72.90
2019-03-23T07:43:05.778Z,72.10
2019-03-23T07:45:34.163Z,72.40
2019-03-23T07:48:02.551Z,70.80
2019-03-23T07:50:30.951Z,69.60
2019-03-23T07:52:59.339Z,69.50
2019-03-23T07:55:27.836Z,67.30
2019-03-23T07:57:56.708Z,68.40
2019-03-23T08:00:25.292Z,66.60
2019-03-23T08:02:53.687Z,64.50
2019-03-23T08:05:22.353Z,63.50
2019-03-23T08:07:51.024Z,64.60
2019-03-23T08:10:27.580Z,63.60
2019-03-23T08:12:55.976Z,62.70
2019-03-23T08:15:24.391Z,61.10
2019-03-23T08:17:52.768Z,60.20
2019-03-23T08:20:21.193Z,58.20
2019-03-23T08:22:49.577Z,57.80
2019-03-23T08:25:17.985Z,57.70
2019-03-23T08:27:46.676Z,57.50
2019-03-23T08:30:15.187Z,58.00
2019-03-23T08:32:43.562Z,55.10
2019-03-23T08:35:12.249Z,55.70
2019-03-23T08:37:40.682Z,53.90
2019-03-23T08:40:09.142Z,53.90
2019-03-23T08:42:37.589Z,54.40
2019-03-23T08:45:07.793Z,53.70
2019-03-23T08:47:36.473Z,53.30
2019-03-23T08:50:06.900Z,54.70
2019-03-23T08:52:35.312Z,55.30
2019-03-23T08:55:04.686Z,56.00
2019-03-23T08:57:33.072Z,52.90
2019-03-23T09:00:01.767Z,52.00
2019-03-23T09:02:30.452Z,53.60
2019-03-23T09:04:58.852Z,51.30
2019-03-23T09:07:27.508Z,50.50
2019-03-23T09:09:59.367Z,49.20
2019-03-23T09:12:26.024Z,49.70
2019-03-23T09:14:54.696Z,49.00
2019-03-23T09:17:23.098Z,48.90
2019-03-23T09:19:51.485Z,51.60
2019-03-23T09:22:19.889Z,47.40
2019-03-23T09:24:48.529Z,47.20
2019-03-23T09:27:16.941Z,48.00
2019-03-23T09:29:45.324Z,48.40
2019-03-23T09:32:13.731Z,50.30
2019-03-23T09:34:42.126Z,43.40
2019-03-23T09:37:10.525Z,43.90
2019-03-23T09:39:38.910Z,42.80
2019-03-23T09:42:07.310Z,43.60
2019-03-23T09:44:35.697Z,43.30
2019-03-23T09:47:04.091Z,42.70
2019-03-23T09:49:32.480Z,42.00
2019-03-23T09:52:00.886Z,42.10
2019-03-23T09:54:29.276Z,40.00
2019-03-23T09:56:59.529Z,40.10
2019-03-23T09:59:27.827Z,40.50
2019-03-23T10:01:56.283Z,40.50
2019-03-23T10:04:24.703Z,41.20
2019-03-23T10:06:53.128Z,40.30
2019-03-23T10:09:21.488Z,39.50
2019-03-23T10:11:50.211Z,40.00
2019-03-23T10:14:18.602Z,38.80
2019-03-23T10:16:46.996Z,38.90
2019-03-23T10:19:15.460Z,38.10
2019-03-23T10:21:43.918Z,37.70
2019-03-23T10:24:12.296Z,38.00
2019-03-23T10:26:40.701Z,38.00
2019-03-23T10:29:09.181Z,38.30
2019-03-23T10:31:37.569Z,38.10
2019-03-23T10:34:05.984Z,39.40
2019-03-23T10:36:34.376Z,40.10
2019-03-23T10:39:04.045Z,40.80
2019-03-23T10:41:32.442Z,39.20
2019-03-23T10:44:00.836Z,39.30
2019-03-23T10:46:29.224Z,39.80
2019-03-23T10:48:57.624Z,42.90
2019-03-23T10:51:26.007Z,38.40
2019-03-23T10:53:54.548Z,37.20
2019-03-23T10:56:22.930Z,37.00
2019-03-23T10:58:51.332Z,44.50
2019-03-23T11:01:19.724Z,37.00
2019-03-23T11:03:48.127Z,36.90
2019-03-23T11:06:16.511Z,38.80
2019-03-23T11:08:44.930Z,37.60
2019-03-23T11:11:13.308Z,36.80
2019-03-23T11:13:41.708Z,36.50
2019-03-23T11:16:10.607Z,36.20
2019-03-23T11:18:39.030Z,36.60
2019-03-23T11:21:07.415Z,36.60
2019-03-23T11:23:35.816Z,35.80
2019-03-23T11:26:04.208Z,36.50
2019-03-23T11:28:32.646Z,39.60
2019-03-23T11:31:01.023Z,37.60
2019-03-23T11:33:29.417Z,35.60
2019-03-23T11:35:58.299Z,35.00
2019-03-23T11:38:26.798Z,36.20
2019-03-23T11:40:55.401Z,34.80
2019-03-23T11:43:23.947Z,34.10
2019-03-23T11:45:52.342Z,41.20
2019-03-23T11:48:20.750Z,35.20
2019-03-23T11:50:49.140Z,34.80
2019-03-23T11:53:17.527Z,34.00
2019-03-23T11:55:46.171Z,34.40
2019-03-23T11:58:14.567Z,35.00
2019-03-23T12:00:42.969Z,39.20
2019-03-23T12:03:11.357Z,35.30
2019-03-23T12:05:40.126Z,35.50
2019-03-23T12:08:08.576Z,47.70
2019-03-23T12:10:36.977Z,36.30
2019-03-23T12:13:05.364Z,36.90
2019-03-23T12:15:33.763Z,36.20
2019-03-23T12:18:02.151Z,35.60
2019-03-23T12:20:30.560Z,34.90
2019-03-23T12:22:58.950Z,35.00
2019-03-23T12:25:27.354Z,35.10
2019-03-23T12:27:56.369Z,34.90
2019-03-23T12:30:24.741Z,35.20
2019-03-23T12:32:53.142Z,34.20
2019-03-23T12:35:21.542Z,36.20
2019-03-23T12:37:49.928Z,34.70
2019-03-23T12:40:18.693Z,33.10
2019-03-23T12:42:47.096Z,33.30
2019-03-23T12:45:15.828Z,44.90
2019-03-23T12:47:44.227Z,45.40
2019-03-23T12:50:12.995Z,34.70
2019-03-23T12:52:41.416Z,36.90
2019-03-23T12:55:10.281Z,32.80
2019-03-23T12:57:38.673Z,36.10
2019-03-23T13:00:12.708Z,35.50
2019-03-23T13:02:41.347Z,46.00
2019-03-23T13:05:09.877Z,43.40
2019-03-23T13:07:38.272Z,40.80
2019-03-23T13:10:10.074Z,36.10
2019-03-23T13:12:38.469Z,53.30
2019-03-23T13:15:09.359Z,35.80
2019-03-23T13:17:38.085Z,32.10
2019-03-23T13:20:08.759Z,44.40
2019-03-23T13:22:37.281Z,52.40
2019-03-23T13:25:08.213Z,52.80
2019-03-23T13:27:36.779Z,46.30
2019-03-23T13:30:08.257Z,37.80
2019-03-23T13:32:36.656Z,34.10
2019-03-23T13:35:05.414Z,45.00
2019-03-23T13:37:33.819Z,37.30
2019-03-23T13:40:02.204Z,34.60
2019-03-23T13:42:30.602Z,35.10
2019-03-23T13:44:59.011Z,33.90
2019-03-23T13:47:27.392Z,46.30
2019-03-23T13:49:55.784Z,36.00
2019-03-23T13:52:24.203Z,39.30
2019-03-23T13:54:52.899Z,34.30
2019-03-23T13:57:21.302Z,43.80
2019-03-23T13:59:49.695Z,34.20
2019-03-23T14:02:18.107Z,38.50
2019-03-23T14:04:46.500Z,36.70
2019-03-23T14:07:15.105Z,33.40
2019-03-23T14:09:43.492Z,36.00
2019-03-23T14:12:11.876Z,35.10
2019-03-23T14:14:40.277Z,35.20
2019-03-23T14:17:08.657Z,36.20
2019-03-23T14:19:37.321Z,33.60
2019-03-23T14:22:05.712Z,33.10
2019-03-23T14:24:34.133Z,38.80
2019-03-23T14:27:02.771Z,34.80
2019-03-23T14:29:31.165Z,39.60
2019-03-23T14:31:59.556Z,41.40
2019-03-23T14:34:27.955Z,34.30
2019-03-23T14:36:56.443Z,35.00
2019-03-23T14:39:24.846Z,38.70
2019-03-23T14:41:53.232Z,36.20
2019-03-23T14:44:21.631Z,33.30
2019-03-23T14:46:50.022Z,34.20
2019-03-23T14:49:18.424Z,37.90
2019-03-23T14:51:46.813Z,34.10
2019-03-23T14:54:15.210Z,34.60
2019-03-23T14:56:43.838Z,34.00
2019-03-23T14:59:12.250Z,34.90
2019-03-23T15:01:40.642Z,43.00
2019-03-23T15:04:09.287Z,35.20
2019-03-23T15:06:37.676Z,38.70
2019-03-23T15:09:06.616Z,35.10
2019-03-23T15:11:35.248Z,36.10
2019-03-23T15:14:03.652Z,35.60
2019-03-23T15:16:32.079Z,50.20
2019-03-23T15:19:00.516Z,37.00
2019-03-23T15:21:28.903Z,36.50
2019-03-23T15:23:57.291Z,39.00
2019-03-23T15:26:25.942Z,46.10
2019-03-23T15:28:54.343Z,37.30
2019-03-23T15:31:22.752Z,43.30
2019-03-23T15:33:51.139Z,43.00
2019-03-23T15:36:19.533Z,45.80
2019-03-23T15:38:47.924Z,38.80
2019-03-23T15:41:16.330Z,41.60
2019-03-23T15:43:44.711Z,38.80
2019-03-23T15:46:13.116Z,40.10
2019-03-23T15:48:41.504Z,43.30
2019-03-23T15:51:09.903Z,38.60
2019-03-23T15:53:38.294Z,39.40
2019-03-23T15:56:06.704Z,41.70
2019-03-23T15:58:35.114Z,41.80
2019-03-23T16:01:03.487Z,54.20
2019-03-23T16:03:31.875Z,40.10
2019-03-23T16:06:00.268Z,49.70
2019-03-23T16:08:28.649Z,42.00
2019-03-23T16:10:57.041Z,46.00
2019-03-23T16:13:25.454Z,44.00
2019-03-23T16:15:53.853Z,43.10
2019-03-23T16:18:22.326Z,45.70
2019-03-23T16:20:50.715Z,43.00
2019-03-23T16:23:19.143Z,44.80
2019-03-23T16:25:47.528Z,48.40
2019-03-23T16:28:15.932Z,54.20
2019-03-23T16:30:44.347Z,45.50
2019-03-23T16:33:12.725Z,45.50
2019-03-23T16:35:41.106Z,57.30
2019-03-23T16:38:09.510Z,57.40
2019-03-23T16:40:37.887Z,59.20
2019-03-23T16:43:06.430Z,50.90
2019-03-23T16:45:34.878Z,50.30
2019-03-23T16:48:03.547Z,56.20
2019-03-23T16:50:31.930Z,58.80
2019-03-23T16:53:00.328Z,56.50
2019-03-23T16:55:28.720Z,57.00
2019-03-23T16:57:57.192Z,59.20
2019-03-23T17:00:34.845Z,63.00
2019-03-23T17:03:03.781Z,59.30
2019-03-23T17:05:32.243Z,64.60
2019-03-23T17:08:00.643Z,61.40
2019-03-23T17:10:29.099Z,61.80
2019-03-23T17:12:57.731Z,66.00
2019-03-23T17:15:26.137Z,64.20
2019-03-23T17:17:54.752Z,66.10
2019-03-23T17:20:23.208Z,59.20
2019-03-23T17:22:51.609Z,63.00
2019-03-23T17:25:20.010Z,70.30
2019-03-23T17:27:48.398Z,67.10
2019-03-23T17:30:17.020Z,69.90
2019-03-23T17:32:45.418Z,64.20
2019-03-23T17:35:13.804Z,62.00
2019-03-23T17:37:42.207Z,68.50
2019-03-23T17:40:10.728Z,60.90
2019-03-23T17:42:39.120Z,73.80
2019-03-23T17:45:07.852Z,69.50
2019-03-23T17:47:36.257Z,64.20
2019-03-23T17:50:06.786Z,70.10
2019-03-23T17:52:34.418Z,72.20
2019-03-23T17:55:02.995Z,71.50
2019-03-23T17:57:31.376Z,71.60
2019-03-23T17:59:59.779Z,70.50
2019-03-23T18:02:28.163Z,70.00
2019-03-23T18:04:56.552Z,73.10
2019-03-23T18:07:25.181Z,69.00
2019-03-23T18:09:53.571Z,69.60
2019-03-23T18:12:21.948Z,70.50
2019-03-23T18:14:50.349Z,69.40
2019-03-23T18:17:18.736Z,67.10
2019-03-23T18:19:47.137Z,72.60
2019-03-23T18:22:15.523Z,72.60
2019-03-23T18:24:43.925Z,75.20
2019-03-23T18:27:12.315Z,73.50
2019-03-23T18:29:40.721Z,72.60
2019-03-23T18:32:09.113Z,72.90
2019-03-23T18:34:37.514Z,74.10
2019-03-23T18:37:05.933Z,73.10
2019-03-23T18:39:34.349Z,70.70
2019-03-23T18:42:02.723Z,75.30
2019-03-23T18:44:31.699Z,72.50
2019-03-23T18:47:00.411Z,75.50
2019-03-23T18:49:28.809Z,71.70
2019-03-23T18:51:57.210Z,73.50
2019-03-23T18:54:25.616Z,75.20
2019-03-23T18:56:54.002Z,73.50
2019-03-23T18:59:22.392Z,75.90
2019-03-23T19:01:50.796Z,75.30
2019-03-23T19:04:19.582Z,71.60
2019-03-23T19:06:47.979Z,72.40
2019-03-23T19:09:16.385Z,75.10
2019-03-23T19:11:44.787Z,73.50
2019-03-23T19:14:13.180Z,73.00
2019-03-23T19:16:41.586Z,74.00
2019-03-23T19:19:10.272Z,74.40
2019-03-23T19:21:38.686Z,74.40
2019-03-23T19:24:07.341Z,76.60
2019-03-23T19:26:35.745Z,74.10
2019-03-23T19:29:04.136Z,74.30
2019-03-23T19:31:32.532Z,77.90
2019-03-23T19:34:01.174Z,75.40
2019-03-23T19:36:29.567Z,75.40
2019-03-23T19:38:57.964Z,78.50
2019-03-23T19:41:26.377Z,77.30
2019-03-23T19:43:54.759Z,77.40
2019-03-23T19:46:23.486Z,77.00
2019-03-23T19:48:52.168Z,77.70
2019-03-23T19:51:20.793Z,75.90
2019-03-23T19:53:49.180Z,77.10
2019-03-23T19:56:17.920Z,75.20
2019-03-23T19:58:46.312Z,77.50
2019-03-23T20:01:14.707Z,78.70
2019-03-23T20:03:43.115Z,76.90
2019-03-23T20:06:11.515Z,76.10
2019-03-23T20:08:39.924Z,78.20
2019-03-23T20:11:08.308Z,78.50
2019-03-23T20:13:36.709Z,77.00
2019-03-23T20:16:05.110Z,77.30
2019-03-23T20:18:33.502Z,78.80
2019-03-23T20:21:01.893Z,78.90
2019-03-23T20:23:30.299Z,77.80
2019-03-23T20:25:58.689Z,78.80
2019-03-23T20:28:27.097Z,77.40
2019-03-23T20:30:55.472Z,78.10
2019-03-23T20:33:23.871Z,78.40
2019-03-23T20:35:52.261Z,78.90
2019-03-23T20:38:20.664Z,77.70
2019-03-23T20:40:49.052Z,79.30
2019-03-23T20:43:17.459Z,79.10
2019-03-23T20:45:45.852Z,78.80
2019-03-23T20:48:14.593Z,78.80
2019-03-23T20:50:44.120Z,80.10
2019-03-23T20:53:14.820Z,80.50
2019-03-23T20:55:43.224Z,78.90
2019-03-23T20:58:11.627Z,80.40
2019-03-23T21:00:40.090Z,78.90
2019-03-23T21:03:08.489Z,80.10
2019-03-23T21:05:36.960Z,79.00
2019-03-23T21:08:05.923Z,80.80
2019-03-23T21:10:34.662Z,81.00
2019-03-23T21:13:03.048Z,80.80
2019-03-23T21:15:31.446Z,80.20
2019-03-23T21:17:59.841Z,80.50
2019-03-23T21:20:28.240Z,81.00
2019-03-23T21:22:56.623Z,81.00
2019-03-23T21:25:25.028Z,81.30
2019-03-23T21:27:53.422Z,81.10
2019-03-23T21:30:21.956Z,81.10
2019-03-23T21:32:50.600Z,81.30
2019-03-23T21:35:19.013Z,82.00
2019-03-23T21:37:47.399Z,82.20
2019-03-23T21:40:15.895Z,82.60
2019-03-23T21:42:44.271Z,82.70
2019-03-23T21:45:13.221Z,81.70
2019-03-23T21:47:41.603Z,81.90
2019-03-23T21:50:10.083Z,82.30
2019-03-23T21:52:38.780Z,82.60
2019-03-23T21:55:07.403Z,82.90
2019-03-23T21:57:35.932Z,83.10
2019-03-23T22:00:06.076Z,83.30
2019-03-23T22:02:34.471Z,82.50
2019-03-23T22:05:02.935Z,82.70
2019-03-23T22:07:31.327Z,83.30
2019-03-23T22:09:59.980Z,82.80
2019-03-23T22:12:28.367Z,83.10
2019-03-23T22:14:58.040Z,82.50
2019-03-23T22:17:26.432Z,83.50
2019-03-23T22:19:54.828Z,84.50
2019-03-23T22:22:23.225Z,84.40
2019-03-23T22:24:51.618Z,84.30
2019-03-23T22:27:19.996Z,84.70
2019-03-23T22:29:48.416Z,85.00
2019-03-23T22:32:17.148Z,84.70
2019-03-23T22:34:45.564Z,84.90
2019-03-23T22:37:13.964Z,85.10
2019-03-23T22:39:42.353Z,84.90
2019-03-23T22:42:11.077Z,85.30
2019-03-23T22:44:39.537Z,84.80
2019-03-23T22:47:07.938Z,85.60
2019-03-23T22:49:36.332Z,85.80
2019-03-23T22:52:04.719Z,85.90
2019-03-23T22:54:33.120Z,86.20
2019-03-23T22:57:01.865Z,85.80
2019-03-23T22:59:30.275Z,86.40
2019-03-23T23:01:58.746Z,86.40
2019-03-23T23:04:27.146Z,86.20
2019-03-23T23:06:55.536Z,87.00
2019-03-23T23:09:23.915Z,86.40
2019-03-23T23:11:52.565Z,86.70
2019-03-23T23:14:20.945Z,86.90
2019-03-23T23:16:49.356Z,86.60
2019-03-23T23:19:17.733Z,86.30
2019-03-23T23:21:46.383Z,86.60
2019-03-23T23:24:14.769Z,86.80
2019-03-23T23:26:43.171Z,87.10
2019-03-23T23:29:11.559Z,87.10
2019-03-23T23:31:39.952Z,87.20
2019-03-23T23:34:08.336Z,87.10
2019-03-23T23:36:36.723Z,87.80
2019-03-23T23:39:07.043Z,87.20
2019-03-23T23:41:35.432Z,87.60
2019-03-23T23:44:04.151Z,87.30
2019-03-23T23:46:32.541Z,87.80
2019-03-23T23:49:00.944Z,87.70
2019-03-23T23:51:29.328Z,87.10
2019-03-23T23:53:57.715Z,87.00
2019-03-23T23:56:26.113Z,87.80
2019-03-23T23:58:54.499Z,88.50
